Duartina, Brazil
Current Conditions -  °F | °C
As of 10:00 AM on Sunday 23 Nov 2014 (Local Time) from SBBU Reporting Station
Few Clouds Few Clouds  
Wind Chill: 72°   Ceiling: Unl
Heat Index: 72°   Visibility: 4mi
Dew Point: 72°   Wind: 5mph
Humidity: 100%   Direction: 150°SSE
Pressure: 30"   Gusts: NA
Location:  22.4°S, 49.42°W
Report Text: SBBU 231200Z 15004KT 6000 FEW030 22/22 Q1016
Loading
Personal Weather Stations






























Interactive Weather Map New forecast layout! Learn more

10-Day Weather Forecast

Advertisements
Track Severe Weather on mobile